sensor_id;sensor_type;location;lat;lon;timestamp;P1;durP1;ratioP1;P2;durP2;ratioP2
20170;SDS011;10245;51.344;6.620;2022-08-19T00:00:45;9.57;;;8.07;;
20170;SDS011;10245;51.344;6.620;2022-08-19T00:03:12;8.90;;;8.00;;
20170;SDS011;10245;51.344;6.620;2022-08-19T00:05:36;9.30;;;8.32;;
20170;SDS011;10245;51.344;6.620;2022-08-19T00:08:00;8.73;;;7.93;;
20170;SDS011;10245;51.344;6.620;2022-08-19T00:10:30;8.82;;;8.02;;
20170;SDS011;10245;51.344;6.620;2022-08-19T00:12:53;8.35;;;7.53;;
20170;SDS011;10245;51.344;6.620;2022-08-19T00:15:18;8.95;;;8.18;;
20170;SDS011;10245;51.344;6.620;2022-08-19T00:17:44;9.65;;;8.23;;
20170;SDS011;10245;51.344;6.620;2022-08-19T00:20:12;9.13;;;8.30;;
20170;SDS011;10245;51.344;6.620;2022-08-19T00:22:38;8.57;;;7.78;;
20170;SDS011;10245;51.344;6.620;2022-08-19T00:25:03;10.65;;;8.80;;
20170;SDS011;10245;51.344;6.620;2022-08-19T00:27:28;10.02;;;8.60;;
20170;SDS011;10245;51.344;6.620;2022-08-19T00:29:51;9.25;;;8.25;;
20170;SDS011;10245;51.344;6.620;2022-08-19T00:32:15;9.00;;;8.13;;
20170;SDS011;10245;51.344;6.620;2022-08-19T00:34:39;9.98;;;7.95;;
20170;SDS011;10245;51.344;6.620;2022-08-19T00:37:04;9.70;;;8.02;;
20170;SDS011;10245;51.344;6.620;2022-08-19T00:39:29;9.18;;;8.25;;
20170;SDS011;10245;51.344;6.620;2022-08-19T00:41:52;9.60;;;8.63;;
20170;SDS011;10245;51.344;6.620;2022-08-19T00:44:17;9.90;;;8.45;;
20170;SDS011;10245;51.344;6.620;2022-08-19T00:46:48;9.65;;;8.65;;
20170;SDS011;10245;51.344;6.620;2022-08-19T00:49:19;8.52;;;7.65;;
20170;SDS011;10245;51.344;6.620;2022-08-19T00:51:48;9.73;;;8.70;;
20170;SDS011;10245;51.344;6.620;2022-08-19T00:54:22;9.68;;;8.55;;
20170;SDS011;10245;51.344;6.620;2022-08-19T00:56:51;10.05;;;9.15;;
20170;SDS011;10245;51.344;6.620;2022-08-19T00:59:16;9.40;;;8.38;;
20170;SDS011;10245;51.344;6.620;2022-08-19T01:02:05;9.43;;;8.48;;
20170;SDS011;10245;51.344;6.620;2022-08-19T01:04:30;9.13;;;8.30;;
20170;SDS011;10245;51.344;6.620;2022-08-19T01:06:54;10.30;;;9.25;;
20170;SDS011;10245;51.344;6.620;2022-08-19T01:09:19;8.88;;;8.07;;
20170;SDS011;10245;51.344;6.620;2022-08-19T01:11:44;9.52;;;8.68;;
20170;SDS011;10245;51.344;6.620;2022-08-19T01:14:08;9.98;;;9.00;;
20170;SDS011;10245;51.344;6.620;2022-08-19T01:16:33;9.68;;;8.77;;
20170;SDS011;10245;51.344;6.620;2022-08-19T01:19:00;9.40;;;8.50;;
20170;SDS011;10245;51.344;6.620;2022-08-19T01:21:25;9.75;;;8.77;;
20170;SDS011;10245;51.344;6.620;2022-08-19T01:23:55;10.32;;;8.43;;
20170;SDS011;10245;51.344;6.620;2022-08-19T01:26:20;10.13;;;8.88;;
20170;SDS011;10245;51.344;6.620;2022-08-19T01:28:47;9.63;;;8.73;;
20170;SDS011;10245;51.344;6.620;2022-08-19T01:31:14;10.68;;;9.57;;
20170;SDS011;10245;51.344;6.620;2022-08-19T01:33:48;10.15;;;8.38;;
20170;SDS011;10245;51.344;6.620;2022-08-19T01:36:13;10.20;;;9.05;;
20170;SDS011;10245;51.344;6.620;2022-08-19T01:38:48;9.70;;;8.70;;
20170;SDS011;10245;51.344;6.620;2022-08-19T01:41:13;9.93;;;8.98;;
20170;SDS011;10245;51.344;6.620;2022-08-19T01:43:37;10.63;;;8.98;;
20170;SDS011;10245;51.344;6.620;2022-08-19T01:46:21;9.93;;;8.85;;
20170;SDS011;10245;51.344;6.620;2022-08-19T01:48:45;9.52;;;8.55;;
20170;SDS011;10245;51.344;6.620;2022-08-19T01:51:10;8.95;;;8.10;;
20170;SDS011;10245;51.344;6.620;2022-08-19T01:53:34;10.73;;;8.85;;
20170;SDS011;10245;51.344;6.620;2022-08-19T01:55:58;8.93;;;8.13;;
20170;SDS011;10245;51.344;6.620;2022-08-19T01:58:24;10.00;;;7.88;;
20170;SDS011;10245;51.344;6.620;2022-08-19T02:00:52;9.13;;;8.32;;
20170;SDS011;10245;51.344;6.620;2022-08-19T02:03:16;9.70;;;8.57;;
20170;SDS011;10245;51.344;6.620;2022-08-19T02:05:40;9.23;;;8.35;;
20170;SDS011;10245;51.344;6.620;2022-08-19T02:08:06;10.93;;;9.15;;
20170;SDS011;10245;51.344;6.620;2022-08-19T02:10:30;10.43;;;9.52;;
20170;SDS011;10245;51.344;6.620;2022-08-19T02:12:54;11.40;;;9.55;;
20170;SDS011;10245;51.344;6.620;2022-08-19T02:15:19;10.27;;;9.18;;
20170;SDS011;10245;51.344;6.620;2022-08-19T02:17:43;11.55;;;10.45;;
20170;SDS011;10245;51.344;6.620;2022-08-19T02:20:08;10.77;;;9.73;;
20170;SDS011;10245;51.344;6.620;2022-08-19T02:22:34;11.30;;;10.18;;
20170;SDS011;10245;51.344;6.620;2022-08-19T02:24:58;11.30;;;10.20;;
20170;SDS011;10245;51.344;6.620;2022-08-19T02:27:22;11.02;;;9.93;;
20170;SDS011;10245;51.344;6.620;2022-08-19T02:29:47;11.70;;;10.50;;
20170;SDS011;10245;51.344;6.620;2022-08-19T02:32:12;11.95;;;10.85;;
20170;SDS011;10245;51.344;6.620;2022-08-19T02:34:36;12.38;;;10.70;;
20170;SDS011;10245;51.344;6.620;2022-08-19T02:37:00;13.02;;;11.73;;
20170;SDS011;10245;51.344;6.620;2022-08-19T02:39:24;15.82;;;13.02;;
20170;SDS011;10245;51.344;6.620;2022-08-19T02:41:47;16.13;;;14.43;;
20170;SDS011;10245;51.344;6.620;2022-08-19T02:44:16;17.73;;;15.82;;
20170;SDS011;10245;51.344;6.620;2022-08-19T02:46:51;19.52;;;17.42;;
20170;SDS011;10245;51.344;6.620;2022-08-19T02:49:17;20.35;;;18.23;;
20170;SDS011;10245;51.344;6.620;2022-08-19T02:51:42;20.67;;;18.45;;
20170;SDS011;10245;51.344;6.620;2022-08-19T02:54:09;22.25;;;20.15;;
20170;SDS011;10245;51.344;6.620;2022-08-19T02:56:38;24.70;;;22.10;;
20170;SDS011;10245;51.344;6.620;2022-08-19T02:59:05;24.83;;;22.20;;
20170;SDS011;10245;51.344;6.620;2022-08-19T03:01:32;26.42;;;23.73;;
20170;SDS011;10245;51.344;6.620;2022-08-19T03:03:57;27.10;;;24.10;;
20170;SDS011;10245;51.344;6.620;2022-08-19T03:06:25;28.13;;;25.15;;
20170;SDS011;10245;51.344;6.620;2022-08-19T03:08:49;29.27;;;26.23;;
20170;SDS011;10245;51.344;6.620;2022-08-19T03:11:14;28.88;;;25.88;;
20170;SDS011;10245;51.344;6.620;2022-08-19T03:13:39;31.45;;;26.50;;
20170;SDS011;10245;51.344;6.620;2022-08-19T03:16:04;30.33;;;27.23;;
20170;SDS011;10245;51.344;6.620;2022-08-19T03:18:28;31.40;;;28.15;;
20170;SDS011;10245;51.344;6.620;2022-08-19T03:20:52;33.75;;;30.23;;
20170;SDS011;10245;51.344;6.620;2022-08-19T03:23:17;36.08;;;32.22;;
20170;SDS011;10245;51.344;6.620;2022-08-19T03:25:43;33.45;;;30.10;;
20170;SDS011;10245;51.344;6.620;2022-08-19T03:28:31;38.03;;;32.92;;
20170;SDS011;10245;51.344;6.620;2022-08-19T03:30:57;36.60;;;32.72;;
20170;SDS011;10245;51.344;6.620;2022-08-19T03:33:24;36.30;;;32.40;;
20170;SDS011;10245;51.344;6.620;2022-08-19T03:36:00;36.15;;;32.25;;
20170;SDS011;10245;51.344;6.620;2022-08-19T03:38:30;35.15;;;31.45;;
20170;SDS011;10245;51.344;6.620;2022-08-19T03:40:54;36.08;;;32.25;;
20170;SDS011;10245;51.344;6.620;2022-08-19T03:43:18;36.63;;;32.72;;
20170;SDS011;10245;51.344;6.620;2022-08-19T03:45:42;37.03;;;32.88;;
20170;SDS011;10245;51.344;6.620;2022-08-19T03:48:06;36.70;;;33.00;;
20170;SDS011;10245;51.344;6.620;2022-08-19T03:50:29;37.72;;;32.75;;
20170;SDS011;10245;51.344;6.620;2022-08-19T03:52:54;38.35;;;34.35;;
20170;SDS011;10245;51.344;6.620;2022-08-19T03:55:19;37.85;;;33.88;;
20170;SDS011;10245;51.344;6.620;2022-08-19T03:57:43;41.53;;;36.80;;
20170;SDS011;10245;51.344;6.620;2022-08-19T04:00:10;41.70;;;37.22;;
20170;SDS011;10245;51.344;6.620;2022-08-19T04:02:35;41.58;;;36.72;;
20170;SDS011;10245;51.344;6.620;2022-08-19T04:04:59;41.42;;;37.03;;
20170;SDS011;10245;51.344;6.620;2022-08-19T04:07:22;41.40;;;36.90;;
20170;SDS011;10245;51.344;6.620;2022-08-19T04:09:47;43.22;;;38.53;;
20170;SDS011;10245;51.344;6.620;2022-08-19T04:12:14;43.80;;;39.15;;
20170;SDS011;10245;51.344;6.620;2022-08-19T04:14:38;41.30;;;37.00;;
20170;SDS011;10245;51.344;6.620;2022-08-19T04:17:03;43.75;;;39.00;;
20170;SDS011;10245;51.344;6.620;2022-08-19T04:19:29;47.40;;;42.33;;
20170;SDS011;10245;51.344;6.620;2022-08-19T04:21:54;44.75;;;39.88;;
20170;SDS011;10245;51.344;6.620;2022-08-19T04:24:19;45.45;;;40.55;;
20170;SDS011;10245;51.344;6.620;2022-08-19T04:26:44;45.65;;;40.33;;
20170;SDS011;10245;51.344;6.620;2022-08-19T04:29:11;43.38;;;38.65;;
20170;SDS011;10245;51.344;6.620;2022-08-19T04:31:38;43.10;;;38.63;;
20170;SDS011;10245;51.344;6.620;2022-08-19T04:34:04;45.75;;;40.60;;
20170;SDS011;10245;51.344;6.620;2022-08-19T04:36:32;44.00;;;39.03;;
20170;SDS011;10245;51.344;6.620;2022-08-19T04:38:58;45.70;;;40.53;;
20170;SDS011;10245;51.344;6.620;2022-08-19T04:41:25;44.03;;;39.35;;
20170;SDS011;10245;51.344;6.620;2022-08-19T04:44:07;44.78;;;40.03;;
20170;SDS011;10245;51.344;6.620;2022-08-19T04:46:32;44.92;;;40.10;;
20170;SDS011;10245;51.344;6.620;2022-08-19T04:49:11;49.03;;;41.63;;
20170;SDS011;10245;51.344;6.620;2022-08-19T04:51:36;47.60;;;42.35;;
20170;SDS011;10245;51.344;6.620;2022-08-19T04:54:02;47.92;;;42.83;;
20170;SDS011;10245;51.344;6.620;2022-08-19T04:56:27;47.38;;;42.05;;
20170;SDS011;10245;51.344;6.620;2022-08-19T04:58:51;48.13;;;42.92;;
20170;SDS011;10245;51.344;6.620;2022-08-19T05:01:17;48.85;;;43.55;;
20170;SDS011;10245;51.344;6.620;2022-08-19T05:03:44;48.10;;;42.72;;
20170;SDS011;10245;51.344;6.620;2022-08-19T05:06:09;50.95;;;45.35;;
20170;SDS011;10245;51.344;6.620;2022-08-19T05:08:38;50.00;;;44.58;;
20170;SDS011;10245;51.344;6.620;2022-08-19T05:11:07;54.65;;;46.85;;
20170;SDS011;10245;51.344;6.620;2022-08-19T05:13:34;51.55;;;45.70;;
20170;SDS011;10245;51.344;6.620;2022-08-19T05:16:02;54.92;;;48.30;;
20170;SDS011;10245;51.344;6.620;2022-08-19T05:18:26;53.17;;;47.35;;
20170;SDS011;10245;51.344;6.620;2022-08-19T05:21:10;54.88;;;46.63;;
20170;SDS011;10245;51.344;6.620;2022-08-19T05:23:53;53.42;;;47.03;;
20170;SDS011;10245;51.344;6.620;2022-08-19T05:26:17;52.67;;;45.88;;
20170;SDS011;10245;51.344;6.620;2022-08-19T05:28:40;52.88;;;46.65;;
20170;SDS011;10245;51.344;6.620;2022-08-19T05:31:05;59.58;;;50.30;;
20170;SDS011;10245;51.344;6.620;2022-08-19T05:33:28;54.72;;;48.00;;
20170;SDS011;10245;51.344;6.620;2022-08-19T05:35:53;51.67;;;45.75;;
20170;SDS011;10245;51.344;6.620;2022-08-19T05:38:18;59.33;;;48.80;;
20170;SDS011;10245;51.344;6.620;2022-08-19T05:40:42;54.97;;;48.97;;
20170;SDS011;10245;51.344;6.620;2022-08-19T05:43:08;54.45;;;46.95;;
20170;SDS011;10245;51.344;6.620;2022-08-19T05:45:31;54.25;;;46.72;;
20170;SDS011;10245;51.344;6.620;2022-08-19T05:47:55;53.63;;;47.40;;
20170;SDS011;10245;51.344;6.620;2022-08-19T05:50:19;51.67;;;44.47;;
20170;SDS011;10245;51.344;6.620;2022-08-19T05:52:43;50.22;;;44.80;;
20170;SDS011;10245;51.344;6.620;2022-08-19T05:55:12;51.58;;;44.40;;
20170;SDS011;10245;51.344;6.620;2022-08-19T05:57:36;48.35;;;42.92;;
20170;SDS011;10245;51.344;6.620;2022-08-19T06:00:00;49.97;;;43.13;;
20170;SDS011;10245;51.344;6.620;2022-08-19T06:02:32;50.00;;;44.45;;
20170;SDS011;10245;51.344;6.620;2022-08-19T06:04:56;47.90;;;42.70;;
20170;SDS011;10245;51.344;6.620;2022-08-19T06:07:20;49.45;;;43.35;;
20170;SDS011;10245;51.344;6.620;2022-08-19T06:09:44;48.10;;;42.78;;
20170;SDS011;10245;51.344;6.620;2022-08-19T06:12:22;43.42;;;38.38;;
20170;SDS011;10245;51.344;6.620;2022-08-19T06:14:50;49.05;;;43.67;;
20170;SDS011;10245;51.344;6.620;2022-08-19T06:17:22;47.08;;;40.30;;
20170;SDS011;10245;51.344;6.620;2022-08-19T06:19:47;53.70;;;41.67;;
20170;SDS011;10245;51.344;6.620;2022-08-19T06:22:11;44.40;;;39.25;;
20170;SDS011;10245;51.344;6.620;2022-08-19T06:24:35;52.42;;;40.20;;
20170;SDS011;10245;51.344;6.620;2022-08-19T06:26:59;48.30;;;41.42;;
20170;SDS011;10245;51.344;6.620;2022-08-19T06:29:25;45.47;;;40.05;;
20170;SDS011;10245;51.344;6.620;2022-08-19T06:31:52;44.40;;;38.05;;
20170;SDS011;10245;51.344;6.620;2022-08-19T06:34:17;42.92;;;37.30;;
20170;SDS011;10245;51.344;6.620;2022-08-19T06:36:43;37.88;;;33.78;;
20170;SDS011;10245;51.344;6.620;2022-08-19T06:39:11;41.65;;;35.30;;
20170;SDS011;10245;51.344;6.620;2022-08-19T06:41:40;40.25;;;35.95;;
20170;SDS011;10245;51.344;6.620;2022-08-19T06:44:12;37.60;;;32.97;;
20170;SDS011;10245;51.344;6.620;2022-08-19T06:46:39;37.00;;;32.33;;
20170;SDS011;10245;51.344;6.620;2022-08-19T06:49:06;35.40;;;31.55;;
20170;SDS011;10245;51.344;6.620;2022-08-19T06:51:31;36.17;;;31.05;;
20170;SDS011;10245;51.344;6.620;2022-08-19T06:54:03;36.63;;;32.53;;
20170;SDS011;10245;51.344;6.620;2022-08-19T06:56:39;36.55;;;31.33;;
20170;SDS011;10245;51.344;6.620;2022-08-19T06:59:06;35.25;;;28.60;;
20170;SDS011;10245;51.344;6.620;2022-08-19T07:01:34;31.08;;;27.45;;
20170;SDS011;10245;51.344;6.620;2022-08-19T07:04:00;29.45;;;24.90;;
20170;SDS011;10245;51.344;6.620;2022-08-19T07:06:24;31.83;;;25.45;;
20170;SDS011;10245;51.344;6.620;2022-08-19T07:09:05;28.10;;;25.00;;
20170;SDS011;10245;51.344;6.620;2022-08-19T07:11:32;27.63;;;23.48;;
20170;SDS011;10245;51.344;6.620;2022-08-19T07:13:56;28.88;;;24.80;;
20170;SDS011;10245;51.344;6.620;2022-08-19T07:16:20;33.45;;;26.83;;
20170;SDS011;10245;51.344;6.620;2022-08-19T07:18:50;29.40;;;26.17;;
20170;SDS011;10245;51.344;6.620;2022-08-19T07:21:16;28.95;;;24.88;;
20170;SDS011;10245;51.344;6.620;2022-08-19T07:23:43;28.55;;;25.13;;
20170;SDS011;10245;51.344;6.620;2022-08-19T07:26:08;27.95;;;24.75;;
20170;SDS011;10245;51.344;6.620;2022-08-19T07:28:35;28.83;;;24.73;;
20170;SDS011;10245;51.344;6.620;2022-08-19T07:31:12;29.00;;;25.88;;
20170;SDS011;10245;51.344;6.620;2022-08-19T07:33:44;31.02;;;25.52;;
20170;SDS011;10245;51.344;6.620;2022-08-19T07:36:17;27.95;;;24.80;;
20170;SDS011;10245;51.344;6.620;2022-08-19T07:38:47;30.15;;;26.65;;
20170;SDS011;10245;51.344;6.620;2022-08-19T07:41:14;32.88;;;28.75;;
20170;SDS011;10245;51.344;6.620;2022-08-19T07:43:41;38.60;;;32.38;;
20170;SDS011;10245;51.344;6.620;2022-08-19T07:46:05;34.58;;;29.17;;
20170;SDS011;10245;51.344;6.620;2022-08-19T07:48:30;40.13;;;34.33;;
20170;SDS011;10245;51.344;6.620;2022-08-19T07:51:00;48.40;;;38.40;;
20170;SDS011;10245;51.344;6.620;2022-08-19T07:53:31;46.88;;;37.65;;
20170;SDS011;10245;51.344;6.620;2022-08-19T07:56:00;42.75;;;35.03;;
20170;SDS011;10245;51.344;6.620;2022-08-19T07:58:25;39.20;;;34.60;;
20170;SDS011;10245;51.344;6.620;2022-08-19T08:00:49;42.70;;;36.22;;
20170;SDS011;10245;51.344;6.620;2022-08-19T08:03:14;37.47;;;31.58;;
20170;SDS011;10245;51.344;6.620;2022-08-19T08:05:42;39.25;;;31.40;;
20170;SDS011;10245;51.344;6.620;2022-08-19T08:08:24;46.60;;;36.40;;
20170;SDS011;10245;51.344;6.620;2022-08-19T08:11:10;46.97;;;37.42;;
20170;SDS011;10245;51.344;6.620;2022-08-19T08:13:36;53.05;;;41.67;;
20170;SDS011;10245;51.344;6.620;2022-08-19T08:18:52;52.70;;;42.28;;
20170;SDS011;10245;51.344;6.620;2022-08-19T08:21:16;54.30;;;43.40;;
20170;SDS011;10245;51.344;6.620;2022-08-19T08:23:40;55.15;;;42.35;;
20170;SDS011;10245;51.344;6.620;2022-08-19T08:26:04;49.45;;;38.13;;
20170;SDS011;10245;51.344;6.620;2022-08-19T08:28:30;48.65;;;40.33;;
20170;SDS011;10245;51.344;6.620;2022-08-19T08:30:53;48.53;;;39.22;;
20170;SDS011;10245;51.344;6.620;2022-08-19T08:33:19;56.50;;;43.88;;
20170;SDS011;10245;51.344;6.620;2022-08-19T08:35:55;54.03;;;41.63;;
20170;SDS011;10245;51.344;6.620;2022-08-19T08:38:19;50.80;;;40.63;;
20170;SDS011;10245;51.344;6.620;2022-08-19T08:40:44;47.75;;;38.03;;
20170;SDS011;10245;51.344;6.620;2022-08-19T08:43:17;38.80;;;33.40;;
20170;SDS011;10245;51.344;6.620;2022-08-19T08:45:55;34.58;;;29.90;;
20170;SDS011;10245;51.344;6.620;2022-08-19T08:48:24;40.65;;;30.85;;
20170;SDS011;10245;51.344;6.620;2022-08-19T08:51:02;39.85;;;33.08;;
20170;SDS011;10245;51.344;6.620;2022-08-19T08:53:29;37.97;;;32.40;;
20170;SDS011;10245;51.344;6.620;2022-08-19T08:56:03;42.95;;;36.15;;
20170;SDS011;10245;51.344;6.620;2022-08-19T08:58:42;39.03;;;33.47;;
20170;SDS011;10245;51.344;6.620;2022-08-19T09:01:16;38.70;;;30.70;;
20170;SDS011;10245;51.344;6.620;2022-08-19T09:03:41;37.03;;;29.52;;
20170;SDS011;10245;51.344;6.620;2022-08-19T09:06:07;31.88;;;26.30;;
20170;SDS011;10245;51.344;6.620;2022-08-19T09:08:40;25.83;;;23.00;;
20170;SDS011;10245;51.344;6.620;2022-08-19T09:11:19;34.30;;;27.95;;
20170;SDS011;10245;51.344;6.620;2022-08-19T09:14:07;31.65;;;26.10;;
20170;SDS011;10245;51.344;6.620;2022-08-19T09:17:05;30.10;;;25.08;;
20170;SDS011;10245;51.344;6.620;2022-08-19T09:19:30;29.65;;;24.90;;
20170;SDS011;10245;51.344;6.620;2022-08-19T09:21:54;30.02;;;26.92;;
20170;SDS011;10245;51.344;6.620;2022-08-19T09:24:17;32.83;;;27.73;;
20170;SDS011;10245;51.344;6.620;2022-08-19T09:26:41;30.20;;;24.70;;
20170;SDS011;10245;51.344;6.620;2022-08-19T09:29:13;25.35;;;20.88;;
20170;SDS011;10245;51.344;6.620;2022-08-19T09:31:38;26.40;;;21.17;;
20170;SDS011;10245;51.344;6.620;2022-08-19T09:34:03;24.48;;;20.85;;
20170;SDS011;10245;51.344;6.620;2022-08-19T09:36:41;21.58;;;18.60;;
20170;SDS011;10245;51.344;6.620;2022-08-19T09:39:05;23.52;;;19.52;;
20170;SDS011;10245;51.344;6.620;2022-08-19T09:41:37;22.33;;;18.25;;
20170;SDS011;10245;51.344;6.620;2022-08-19T09:44:01;21.88;;;18.67;;
20170;SDS011;10245;51.344;6.620;2022-08-19T09:46:26;21.20;;;17.58;;
20170;SDS011;10245;51.344;6.620;2022-08-19T09:48:52;17.92;;;15.68;;
20170;SDS011;10245;51.344;6.620;2022-08-19T09:51:25;20.45;;;15.90;;
20170;SDS011;10245;51.344;6.620;2022-08-19T09:53:51;19.33;;;16.33;;
20170;SDS011;10245;51.344;6.620;2022-08-19T09:56:16;18.33;;;15.57;;
20170;SDS011;10245;51.344;6.620;2022-08-19T09:58:41;20.08;;;16.20;;
20170;SDS011;10245;51.344;6.620;2022-08-19T10:01:06;20.20;;;16.73;;
20170;SDS011;10245;51.344;6.620;2022-08-19T10:03:32;20.33;;;17.55;;
20170;SDS011;10245;51.344;6.620;2022-08-19T10:05:58;18.90;;;16.65;;
20170;SDS011;10245;51.344;6.620;2022-08-19T10:08:25;21.67;;;16.77;;
20170;SDS011;10245;51.344;6.620;2022-08-19T10:10:52;17.95;;;15.05;;
20170;SDS011;10245;51.344;6.620;2022-08-19T10:13:20;15.75;;;14.05;;
20170;SDS011;10245;51.344;6.620;2022-08-19T10:15:46;16.85;;;14.15;;
20170;SDS011;10245;51.344;6.620;2022-08-19T10:18:12;17.60;;;15.05;;
20170;SDS011;10245;51.344;6.620;2022-08-19T10:20:35;24.98;;;16.17;;
20170;SDS011;10245;51.344;6.620;2022-08-19T10:22:59;18.17;;;15.43;;
20170;SDS011;10245;51.344;6.620;2022-08-19T10:25:26;20.48;;;16.38;;
20170;SDS011;10245;51.344;6.620;2022-08-19T10:27:50;15.75;;;14.15;;
20170;SDS011;10245;51.344;6.620;2022-08-19T10:30:16;18.58;;;15.82;;
20170;SDS011;10245;51.344;6.620;2022-08-19T10:32:40;17.20;;;13.32;;
20170;SDS011;10245;51.344;6.620;2022-08-19T10:35:07;15.38;;;13.00;;
20170;SDS011;10245;51.344;6.620;2022-08-19T10:37:30;19.13;;;13.55;;
20170;SDS011;10245;51.344;6.620;2022-08-19T10:39:55;13.30;;;11.95;;
20170;SDS011;10245;51.344;6.620;2022-08-19T10:42:20;16.13;;;13.57;;
20170;SDS011;10245;51.344;6.620;2022-08-19T10:44:47;16.05;;;13.05;;
20170;SDS011;10245;51.344;6.620;2022-08-19T10:47:12;17.40;;;13.65;;
20170;SDS011;10245;51.344;6.620;2022-08-19T10:49:48;14.23;;;12.40;;
20170;SDS011;10245;51.344;6.620;2022-08-19T10:52:32;15.13;;;13.27;;
20170;SDS011;10245;51.344;6.620;2022-08-19T10:54:59;14.93;;;13.10;;
20170;SDS011;10245;51.344;6.620;2022-08-19T10:57:42;14.45;;;12.95;;
20170;SDS011;10245;51.344;6.620;2022-08-19T11:00:23;14.80;;;11.68;;
20170;SDS011;10245;51.344;6.620;2022-08-19T11:02:48;13.75;;;10.50;;
20170;SDS011;10245;51.344;6.620;2022-08-19T11:05:12;14.15;;;11.40;;
20170;SDS011;10245;51.344;6.620;2022-08-19T11:07:36;11.77;;;10.07;;
20170;SDS011;10245;51.344;6.620;2022-08-19T11:10:01;13.93;;;11.15;;
20170;SDS011;10245;51.344;6.620;2022-08-19T11:12:25;12.30;;;10.27;;
20170;SDS011;10245;51.344;6.620;2022-08-19T11:14:50;11.02;;;9.40;;
20170;SDS011;10245;51.344;6.620;2022-08-19T11:17:14;10.55;;;9.35;;
20170;SDS011;10245;51.344;6.620;2022-08-19T11:19:38;12.82;;;9.90;;
20170;SDS011;10245;51.344;6.620;2022-08-19T11:22:03;14.25;;;11.77;;
20170;SDS011;10245;51.344;6.620;2022-08-19T11:24:30;11.85;;;10.57;;
20170;SDS011;10245;51.344;6.620;2022-08-19T11:26:55;12.02;;;10.18;;
20170;SDS011;10245;51.344;6.620;2022-08-19T11:29:26;13.75;;;10.65;;
20170;SDS011;10245;51.344;6.620;2022-08-19T11:31:52;14.77;;;12.05;;
20170;SDS011;10245;51.344;6.620;2022-08-19T11:34:17;12.30;;;9.50;;
20170;SDS011;10245;51.344;6.620;2022-08-19T11:36:45;9.23;;;8.32;;
20170;SDS011;10245;51.344;6.620;2022-08-19T11:39:11;10.38;;;8.57;;
20170;SDS011;10245;51.344;6.620;2022-08-19T11:41:37;9.52;;;8.52;;
20170;SDS011;10245;51.344;6.620;2022-08-19T11:44:01;12.35;;;9.77;;
20170;SDS011;10245;51.344;6.620;2022-08-19T11:46:26;12.05;;;10.45;;
20170;SDS011;10245;51.344;6.620;2022-08-19T11:48:52;9.40;;;8.50;;
20170;SDS011;10245;51.344;6.620;2022-08-19T11:51:16;12.32;;;9.88;;
20170;SDS011;10245;51.344;6.620;2022-08-19T11:53:42;8.82;;;7.93;;
20170;SDS011;10245;51.344;6.620;2022-08-19T11:56:07;8.98;;;7.88;;
20170;SDS011;10245;51.344;6.620;2022-08-19T11:58:32;9.88;;;7.45;;
20170;SDS011;10245;51.344;6.620;2022-08-19T12:00:56;8.05;;;7.03;;
20170;SDS011;10245;51.344;6.620;2022-08-19T12:03:20;9.98;;;8.30;;
20170;SDS011;10245;51.344;6.620;2022-08-19T12:05:46;9.18;;;8.13;;
20170;SDS011;10245;51.344;6.620;2022-08-19T12:08:11;8.15;;;7.20;;
20170;SDS011;10245;51.344;6.620;2022-08-19T12:10:35;11.23;;;6.82;;
20170;SDS011;10245;51.344;6.620;2022-08-19T12:13:00;9.20;;;8.05;;
20170;SDS011;10245;51.344;6.620;2022-08-19T12:15:23;8.68;;;7.63;;
20170;SDS011;10245;51.344;6.620;2022-08-19T12:17:57;9.65;;;7.30;;
20170;SDS011;10245;51.344;6.620;2022-08-19T12:20:21;9.70;;;7.43;;
20170;SDS011;10245;51.344;6.620;2022-08-19T12:22:48;10.75;;;7.85;;
20170;SDS011;10245;51.344;6.620;2022-08-19T12:25:13;7.93;;;6.60;;
20170;SDS011;10245;51.344;6.620;2022-08-19T12:27:39;9.77;;;5.75;;
20170;SDS011;10245;51.344;6.620;2022-08-19T12:30:11;8.57;;;6.25;;
20170;SDS011;10245;51.344;6.620;2022-08-19T12:32:36;8.98;;;6.90;;
20170;SDS011;10245;51.344;6.620;2022-08-19T12:35:01;7.43;;;5.63;;
20170;SDS011;10245;51.344;6.620;2022-08-19T12:37:25;8.18;;;5.40;;
20170;SDS011;10245;51.344;6.620;2022-08-19T12:39:50;4.78;;;4.38;;
20170;SDS011;10245;51.344;6.620;2022-08-19T12:42:13;6.57;;;5.00;;
20170;SDS011;10245;51.344;6.620;2022-08-19T12:44:39;6.85;;;6.15;;
20170;SDS011;10245;51.344;6.620;2022-08-19T12:47:05;6.95;;;4.95;;
20170;SDS011;10245;51.344;6.620;2022-08-19T12:49:30;7.05;;;6.15;;
20170;SDS011;10245;51.344;6.620;2022-08-19T12:52:15;5.13;;;4.63;;
20170;SDS011;10245;51.344;6.620;2022-08-19T12:54:43;12.02;;;5.60;;
20170;SDS011;10245;51.344;6.620;2022-08-19T12:57:09;6.00;;;5.40;;
20170;SDS011;10245;51.344;6.620;2022-08-19T12:59:33;5.53;;;4.40;;
20170;SDS011;10245;51.344;6.620;2022-08-19T13:01:57;5.60;;;4.53;;
20170;SDS011;10245;51.344;6.620;2022-08-19T13:04:21;7.88;;;4.22;;
20170;SDS011;10245;51.344;6.620;2022-08-19T13:06:45;7.63;;;5.82;;
20170;SDS011;10245;51.344;6.620;2022-08-19T13:09:08;6.30;;;5.68;;
20170;SDS011;10245;51.344;6.620;2022-08-19T13:11:33;6.80;;;5.80;;
20170;SDS011;10245;51.344;6.620;2022-08-19T13:13:58;6.97;;;6.30;;
20170;SDS011;10245;51.344;6.620;2022-08-19T13:16:23;6.03;;;4.82;;
20170;SDS011;10245;51.344;6.620;2022-08-19T13:18:49;6.65;;;4.95;;
20170;SDS011;10245;51.344;6.620;2022-08-19T13:21:13;6.57;;;4.75;;
20170;SDS011;10245;51.344;6.620;2022-08-19T13:23:37;5.43;;;4.95;;
20170;SDS011;10245;51.344;6.620;2022-08-19T13:26:01;7.68;;;4.90;;
20170;SDS011;10245;51.344;6.620;2022-08-19T13:28:28;7.18;;;4.72;;
20170;SDS011;10245;51.344;6.620;2022-08-19T13:31:15;7.28;;;5.35;;
20170;SDS011;10245;51.344;6.620;2022-08-19T13:33:57;5.72;;;4.82;;
20170;SDS011;10245;51.344;6.620;2022-08-19T13:36:20;6.32;;;4.80;;
20170;SDS011;10245;51.344;6.620;2022-08-19T13:38:44;6.15;;;5.32;;
20170;SDS011;10245;51.344;6.620;2022-08-19T13:41:08;6.13;;;4.90;;
20170;SDS011;10245;51.344;6.620;2022-08-19T13:43:35;7.72;;;5.20;;
20170;SDS011;10245;51.344;6.620;2022-08-19T13:45:59;6.18;;;5.53;;
20170;SDS011;10245;51.344;6.620;2022-08-19T13:48:32;7.35;;;4.90;;
20170;SDS011;10245;51.344;6.620;2022-08-19T13:50:56;6.70;;;4.20;;
20170;SDS011;10245;51.344;6.620;2022-08-19T13:53:20;6.88;;;5.53;;
20170;SDS011;10245;51.344;6.620;2022-08-19T13:55:43;8.43;;;5.38;;
20170;SDS011;10245;51.344;6.620;2022-08-19T13:58:08;5.53;;;4.90;;
20170;SDS011;10245;51.344;6.620;2022-08-19T14:00:35;6.55;;;5.30;;
20170;SDS011;10245;51.344;6.620;2022-08-19T14:03:01;8.30;;;5.25;;
20170;SDS011;10245;51.344;6.620;2022-08-19T14:05:31;6.90;;;5.20;;
20170;SDS011;10245;51.344;6.620;2022-08-19T14:07:57;7.38;;;5.07;;
20170;SDS011;10245;51.344;6.620;2022-08-19T14:10:22;6.35;;;4.90;;
20170;SDS011;10245;51.344;6.620;2022-08-19T14:12:49;6.22;;;5.15;;
20170;SDS011;10245;51.344;6.620;2022-08-19T14:15:16;6.90;;;5.50;;
20170;SDS011;10245;51.344;6.620;2022-08-19T14:17:40;5.32;;;4.80;;
20170;SDS011;10245;51.344;6.620;2022-08-19T14:20:10;4.95;;;4.32;;
20170;SDS011;10245;51.344;6.620;2022-08-19T14:22:40;6.47;;;4.55;;
20170;SDS011;10245;51.344;6.620;2022-08-19T14:25:06;4.53;;;4.05;;
20170;SDS011;10245;51.344;6.620;2022-08-19T14:27:33;8.25;;;3.88;;
20170;SDS011;10245;51.344;6.620;2022-08-19T14:29:57;4.97;;;3.83;;
20170;SDS011;10245;51.344;6.620;2022-08-19T14:32:21;7.15;;;4.18;;